sensor_id;sensor_type;location;lat;lon;timestamp;P1;durP1;ratioP1;P2;durP2;ratioP2
35306;SDS011;21420;52.196;21.416;2024-03-22T00:02:19;42.20;;;27.90;;
35306;SDS011;21420;52.196;21.416;2024-03-22T00:04:46;38.70;;;28.60;;
35306;SDS011;21420;52.196;21.416;2024-03-22T00:07:12;44.00;;;28.40;;
35306;SDS011;21420;52.196;21.416;2024-03-22T00:09:39;41.80;;;28.30;;
35306;SDS011;21420;52.196;21.416;2024-03-22T00:12:06;38.10;;;26.90;;
35306;SDS011;21420;52.196;21.416;2024-03-22T00:14:32;42.40;;;28.30;;
35306;SDS011;21420;52.196;21.416;2024-03-22T00:17:02;40.30;;;27.90;;
35306;SDS011;21420;52.196;21.416;2024-03-22T00:19:29;37.20;;;27.90;;
35306;SDS011;21420;52.196;21.416;2024-03-22T00:21:55;42.40;;;28.90;;
35306;SDS011;21420;52.196;21.416;2024-03-22T00:24:22;42.40;;;28.40;;
35306;SDS011;21420;52.196;21.416;2024-03-22T00:26:48;43.80;;;28.90;;
35306;SDS011;21420;52.196;21.416;2024-03-22T00:29:14;40.90;;;27.60;;
35306;SDS011;21420;52.196;21.416;2024-03-22T00:31:41;39.60;;;28.40;;
35306;SDS011;21420;52.196;21.416;2024-03-22T00:34:08;38.40;;;28.30;;
35306;SDS011;21420;52.196;21.416;2024-03-22T00:36:34;43.30;;;29.50;;
35306;SDS011;21420;52.196;21.416;2024-03-22T00:39:03;43.00;;;31.00;;
35306;SDS011;21420;52.196;21.416;2024-03-22T00:41:30;40.40;;;29.60;;
35306;SDS011;21420;52.196;21.416;2024-03-22T00:43:57;43.40;;;30.10;;
35306;SDS011;21420;52.196;21.416;2024-03-22T00:46:24;40.10;;;29.20;;
35306;SDS011;21420;52.196;21.416;2024-03-22T00:48:51;41.40;;;29.80;;
35306;SDS011;21420;52.196;21.416;2024-03-22T00:51:17;43.90;;;30.40;;
35306;SDS011;21420;52.196;21.416;2024-03-22T00:53:44;41.20;;;30.10;;
35306;SDS011;21420;52.196;21.416;2024-03-22T00:56:10;44.30;;;30.50;;
35306;SDS011;21420;52.196;21.416;2024-03-22T00:58:37;44.00;;;30.70;;
35306;SDS011;21420;52.196;21.416;2024-03-22T01:01:03;42.00;;;29.70;;
35306;SDS011;21420;52.196;21.416;2024-03-22T01:03:30;48.80;;;31.10;;
35306;SDS011;21420;52.196;21.416;2024-03-22T01:05:57;42.20;;;30.40;;
35306;SDS011;21420;52.196;21.416;2024-03-22T01:08:23;42.50;;;31.50;;
35306;SDS011;21420;52.196;21.416;2024-03-22T01:10:50;43.80;;;29.80;;
35306;SDS011;21420;52.196;21.416;2024-03-22T01:13:17;43.40;;;29.40;;
35306;SDS011;21420;52.196;21.416;2024-03-22T01:15:43;44.60;;;30.60;;
35306;SDS011;21420;52.196;21.416;2024-03-22T01:18:12;42.20;;;30.90;;
35306;SDS011;21420;52.196;21.416;2024-03-22T01:20:38;43.50;;;31.80;;
35306;SDS011;21420;52.196;21.416;2024-03-22T01:23:05;40.60;;;31.30;;
35306;SDS011;21420;52.196;21.416;2024-03-22T01:25:31;44.30;;;32.00;;
35306;SDS011;21420;52.196;21.416;2024-03-22T01:27:58;46.80;;;32.30;;
35306;SDS011;21420;52.196;21.416;2024-03-22T01:30:24;42.80;;;31.50;;
35306;SDS011;21420;52.196;21.416;2024-03-22T01:35:21;45.50;;;31.30;;
35306;SDS011;21420;52.196;21.416;2024-03-22T01:37:48;43.00;;;31.50;;
35306;SDS011;21420;52.196;21.416;2024-03-22T01:40:15;45.80;;;31.70;;
35306;SDS011;21420;52.196;21.416;2024-03-22T01:42:41;42.40;;;30.80;;
35306;SDS011;21420;52.196;21.416;2024-03-22T01:45:08;41.60;;;30.70;;
35306;SDS011;21420;52.196;21.416;2024-03-22T01:47:34;42.60;;;32.10;;
35306;SDS011;21420;52.196;21.416;2024-03-22T01:50:01;46.20;;;32.30;;
35306;SDS011;21420;52.196;21.416;2024-03-22T01:52:28;46.20;;;32.40;;
35306;SDS011;21420;52.196;21.416;2024-03-22T01:54:55;47.50;;;34.10;;
35306;SDS011;21420;52.196;21.416;2024-03-22T01:57:22;46.90;;;33.30;;
35306;SDS011;21420;52.196;21.416;2024-03-22T01:59:49;44.10;;;31.80;;
35306;SDS011;21420;52.196;21.416;2024-03-22T02:02:20;47.70;;;33.10;;
35306;SDS011;21420;52.196;21.416;2024-03-22T02:04:49;47.90;;;32.80;;
35306;SDS011;21420;52.196;21.416;2024-03-22T02:07:17;46.10;;;31.50;;
35306;SDS011;21420;52.196;21.416;2024-03-22T02:09:43;46.00;;;31.50;;
35306;SDS011;21420;52.196;21.416;2024-03-22T02:12:10;45.90;;;33.00;;
35306;SDS011;21420;52.196;21.416;2024-03-22T02:14:37;47.30;;;32.90;;
35306;SDS011;21420;52.196;21.416;2024-03-22T02:17:09;43.80;;;31.80;;
35306;SDS011;21420;52.196;21.416;2024-03-22T02:19:38;45.90;;;32.50;;
35306;SDS011;21420;52.196;21.416;2024-03-22T02:22:05;43.40;;;32.60;;
35306;SDS011;21420;52.196;21.416;2024-03-22T02:24:31;44.30;;;32.60;;
35306;SDS011;21420;52.196;21.416;2024-03-22T02:26:58;42.40;;;32.10;;
35306;SDS011;21420;52.196;21.416;2024-03-22T02:29:24;47.30;;;32.70;;
35306;SDS011;21420;52.196;21.416;2024-03-22T02:31:51;43.90;;;33.50;;
35306;SDS011;21420;52.196;21.416;2024-03-22T02:34:17;45.90;;;33.50;;
35306;SDS011;21420;52.196;21.416;2024-03-22T02:36:44;44.80;;;34.70;;
35306;SDS011;21420;52.196;21.416;2024-03-22T02:39:10;44.80;;;34.50;;
35306;SDS011;21420;52.196;21.416;2024-03-22T02:41:37;49.20;;;35.60;;
35306;SDS011;21420;52.196;21.416;2024-03-22T02:44:03;49.00;;;33.70;;
35306;SDS011;21420;52.196;21.416;2024-03-22T02:46:30;44.70;;;34.30;;
35306;SDS011;21420;52.196;21.416;2024-03-22T02:48:56;46.90;;;34.30;;
35306;SDS011;21420;52.196;21.416;2024-03-22T02:51:23;47.80;;;34.50;;
35306;SDS011;21420;52.196;21.416;2024-03-22T02:53:50;49.20;;;34.80;;
35306;SDS011;21420;52.196;21.416;2024-03-22T02:56:16;45.30;;;34.10;;
35306;SDS011;21420;52.196;21.416;2024-03-22T02:58:43;52.00;;;36.20;;
35306;SDS011;21420;52.196;21.416;2024-03-22T03:01:09;50.30;;;35.90;;
35306;SDS011;21420;52.196;21.416;2024-03-22T03:03:36;48.80;;;37.40;;
35306;SDS011;21420;52.196;21.416;2024-03-22T03:06:02;49.30;;;36.40;;
35306;SDS011;21420;52.196;21.416;2024-03-22T03:08:32;53.60;;;37.70;;
35306;SDS011;21420;52.196;21.416;2024-03-22T03:10:58;49.80;;;35.70;;
35306;SDS011;21420;52.196;21.416;2024-03-22T03:13:25;49.40;;;36.20;;
35306;SDS011;21420;52.196;21.416;2024-03-22T03:15:52;53.20;;;36.90;;
35306;SDS011;21420;52.196;21.416;2024-03-22T03:18:18;53.70;;;37.70;;
35306;SDS011;21420;52.196;21.416;2024-03-22T03:20:45;46.90;;;35.70;;
35306;SDS011;21420;52.196;21.416;2024-03-22T03:23:12;57.30;;;39.00;;
35306;SDS011;21420;52.196;21.416;2024-03-22T03:25:38;59.30;;;40.10;;
35306;SDS011;21420;52.196;21.416;2024-03-22T03:28:04;62.00;;;40.00;;
35306;SDS011;21420;52.196;21.416;2024-03-22T03:30:36;56.00;;;40.50;;
35306;SDS011;21420;52.196;21.416;2024-03-22T03:33:03;59.50;;;40.50;;
35306;SDS011;21420;52.196;21.416;2024-03-22T03:35:29;62.40;;;41.10;;
35306;SDS011;21420;52.196;21.416;2024-03-22T03:37:56;67.10;;;42.30;;
35306;SDS011;21420;52.196;21.416;2024-03-22T03:40:22;71.10;;;43.50;;
35306;SDS011;21420;52.196;21.416;2024-03-22T03:42:50;69.40;;;44.10;;
35306;SDS011;21420;52.196;21.416;2024-03-22T03:45:17;71.40;;;45.10;;
35306;SDS011;21420;52.196;21.416;2024-03-22T03:47:43;71.30;;;46.70;;
35306;SDS011;21420;52.196;21.416;2024-03-22T03:50:10;73.50;;;46.90;;
35306;SDS011;21420;52.196;21.416;2024-03-22T03:52:36;74.00;;;47.40;;
35306;SDS011;21420;52.196;21.416;2024-03-22T03:55:03;80.70;;;47.60;;
35306;SDS011;21420;52.196;21.416;2024-03-22T03:57:30;71.60;;;45.60;;
35306;SDS011;21420;52.196;21.416;2024-03-22T03:59:56;76.10;;;46.40;;
35306;SDS011;21420;52.196;21.416;2024-03-22T04:02:23;74.80;;;49.10;;
35306;SDS011;21420;52.196;21.416;2024-03-22T04:04:51;70.90;;;45.10;;
35306;SDS011;21420;52.196;21.416;2024-03-22T04:07:21;73.10;;;46.10;;
35306;SDS011;21420;52.196;21.416;2024-03-22T04:09:48;68.70;;;43.20;;
35306;SDS011;21420;52.196;21.416;2024-03-22T04:12:14;65.30;;;42.20;;
35306;SDS011;21420;52.196;21.416;2024-03-22T04:14:41;67.00;;;45.50;;
35306;SDS011;21420;52.196;21.416;2024-03-22T04:17:08;69.10;;;44.80;;
35306;SDS011;21420;52.196;21.416;2024-03-22T04:19:34;62.80;;;41.60;;
35306;SDS011;21420;52.196;21.416;2024-03-22T04:22:01;66.80;;;40.60;;
35306;SDS011;21420;52.196;21.416;2024-03-22T04:24:27;65.40;;;43.00;;
35306;SDS011;21420;52.196;21.416;2024-03-22T04:26:54;68.10;;;41.70;;
35306;SDS011;21420;52.196;21.416;2024-03-22T04:29:20;67.20;;;42.20;;
35306;SDS011;21420;52.196;21.416;2024-03-22T04:31:47;73.90;;;43.50;;
35306;SDS011;21420;52.196;21.416;2024-03-22T04:34:13;77.40;;;43.80;;
35306;SDS011;21420;52.196;21.416;2024-03-22T04:36:40;71.80;;;44.10;;
35306;SDS011;21420;52.196;21.416;2024-03-22T04:39:06;73.50;;;43.20;;
35306;SDS011;21420;52.196;21.416;2024-03-22T04:41:33;73.90;;;42.40;;
35306;SDS011;21420;52.196;21.416;2024-03-22T04:44:00;77.80;;;42.50;;
35306;SDS011;21420;52.196;21.416;2024-03-22T04:46:26;75.50;;;42.00;;
35306;SDS011;21420;52.196;21.416;2024-03-22T04:48:53;70.80;;;40.70;;
35306;SDS011;21420;52.196;21.416;2024-03-22T04:51:20;69.40;;;39.80;;
35306;SDS011;21420;52.196;21.416;2024-03-22T04:53:46;78.10;;;40.80;;
35306;SDS011;21420;52.196;21.416;2024-03-22T04:56:12;73.60;;;41.10;;
35306;SDS011;21420;52.196;21.416;2024-03-22T04:58:39;67.90;;;40.40;;
35306;SDS011;21420;52.196;21.416;2024-03-22T05:01:06;74.50;;;41.90;;
35306;SDS011;21420;52.196;21.416;2024-03-22T05:03:32;71.20;;;42.50;;
35306;SDS011;21420;52.196;21.416;2024-03-22T05:05:59;73.50;;;44.20;;
35306;SDS011;21420;52.196;21.416;2024-03-22T05:08:25;76.70;;;43.30;;
35306;SDS011;21420;52.196;21.416;2024-03-22T05:10:52;77.50;;;43.60;;
35306;SDS011;21420;52.196;21.416;2024-03-22T05:13:19;79.80;;;44.40;;
35306;SDS011;21420;52.196;21.416;2024-03-22T05:15:46;73.70;;;43.30;;
35306;SDS011;21420;52.196;21.416;2024-03-22T05:18:12;74.90;;;45.20;;
35306;SDS011;21420;52.196;21.416;2024-03-22T05:20:39;74.80;;;43.00;;
35306;SDS011;21420;52.196;21.416;2024-03-22T05:23:05;69.80;;;43.50;;
35306;SDS011;21420;52.196;21.416;2024-03-22T05:25:32;77.70;;;43.60;;
35306;SDS011;21420;52.196;21.416;2024-03-22T05:27:58;79.60;;;45.80;;
35306;SDS011;21420;52.196;21.416;2024-03-22T05:30:25;75.40;;;44.20;;
35306;SDS011;21420;52.196;21.416;2024-03-22T05:32:51;75.40;;;44.00;;
35306;SDS011;21420;52.196;21.416;2024-03-22T05:35:18;76.60;;;44.10;;
35306;SDS011;21420;52.196;21.416;2024-03-22T05:37:44;75.70;;;43.70;;
35306;SDS011;21420;52.196;21.416;2024-03-22T05:40:11;78.30;;;42.40;;
35306;SDS011;21420;52.196;21.416;2024-03-22T05:42:38;76.50;;;44.00;;
35306;SDS011;21420;52.196;21.416;2024-03-22T05:45:05;73.30;;;43.00;;
35306;SDS011;21420;52.196;21.416;2024-03-22T05:47:32;73.00;;;42.80;;
35306;SDS011;21420;52.196;21.416;2024-03-22T05:50:04;71.70;;;43.10;;
35306;SDS011;21420;52.196;21.416;2024-03-22T05:52:33;66.10;;;41.30;;
35306;SDS011;21420;52.196;21.416;2024-03-22T05:54:59;70.50;;;41.90;;
35306;SDS011;21420;52.196;21.416;2024-03-22T05:57:26;73.40;;;42.60;;
35306;SDS011;21420;52.196;21.416;2024-03-22T05:59:53;68.10;;;41.90;;
35306;SDS011;21420;52.196;21.416;2024-03-22T06:02:19;66.60;;;41.00;;
35306;SDS011;21420;52.196;21.416;2024-03-22T06:04:45;67.00;;;41.10;;
35306;SDS011;21420;52.196;21.416;2024-03-22T06:07:13;67.20;;;41.60;;
35306;SDS011;21420;52.196;21.416;2024-03-22T06:09:42;67.50;;;41.70;;
35306;SDS011;21420;52.196;21.416;2024-03-22T06:12:15;63.30;;;40.50;;
35306;SDS011;21420;52.196;21.416;2024-03-22T06:14:42;63.50;;;40.50;;
35306;SDS011;21420;52.196;21.416;2024-03-22T06:17:09;66.20;;;40.50;;
35306;SDS011;21420;52.196;21.416;2024-03-22T06:19:36;64.90;;;40.60;;
35306;SDS011;21420;52.196;21.416;2024-03-22T06:22:04;62.10;;;38.80;;
35306;SDS011;21420;52.196;21.416;2024-03-22T06:24:33;66.60;;;40.00;;
35306;SDS011;21420;52.196;21.416;2024-03-22T06:27:00;62.40;;;38.00;;
35306;SDS011;21420;52.196;21.416;2024-03-22T06:29:26;61.50;;;37.40;;
35306;SDS011;21420;52.196;21.416;2024-03-22T06:31:53;63.80;;;38.00;;
35306;SDS011;21420;52.196;21.416;2024-03-22T06:34:20;63.70;;;39.20;;
35306;SDS011;21420;52.196;21.416;2024-03-22T06:36:46;63.00;;;40.30;;
35306;SDS011;21420;52.196;21.416;2024-03-22T06:39:13;61.10;;;38.40;;
35306;SDS011;21420;52.196;21.416;2024-03-22T06:41:40;57.70;;;35.50;;
35306;SDS011;21420;52.196;21.416;2024-03-22T06:44:07;57.20;;;36.70;;
35306;SDS011;21420;52.196;21.416;2024-03-22T06:46:35;60.50;;;36.50;;
35306;SDS011;21420;52.196;21.416;2024-03-22T06:49:01;51.60;;;35.00;;
35306;SDS011;21420;52.196;21.416;2024-03-22T06:51:28;60.70;;;35.80;;
35306;SDS011;21420;52.196;21.416;2024-03-22T06:53:54;57.00;;;36.50;;
35306;SDS011;21420;52.196;21.416;2024-03-22T06:56:21;56.80;;;37.50;;
35306;SDS011;21420;52.196;21.416;2024-03-22T06:58:47;62.20;;;38.50;;
35306;SDS011;21420;52.196;21.416;2024-03-22T07:01:14;61.50;;;39.70;;
35306;SDS011;21420;52.196;21.416;2024-03-22T07:03:42;50.50;;;34.00;;
35306;SDS011;21420;52.196;21.416;2024-03-22T07:06:12;50.70;;;33.60;;
35306;SDS011;21420;52.196;21.416;2024-03-22T07:08:39;49.70;;;33.30;;
35306;SDS011;21420;52.196;21.416;2024-03-22T07:11:06;53.20;;;34.10;;
35306;SDS011;21420;52.196;21.416;2024-03-22T07:13:33;55.10;;;34.70;;
35306;SDS011;21420;52.196;21.416;2024-03-22T07:15:59;49.30;;;32.30;;
35306;SDS011;21420;52.196;21.416;2024-03-22T07:18:26;53.40;;;34.10;;
35306;SDS011;21420;52.196;21.416;2024-03-22T07:20:52;54.60;;;34.30;;
35306;SDS011;21420;52.196;21.416;2024-03-22T07:23:19;47.60;;;31.30;;
35306;SDS011;21420;52.196;21.416;2024-03-22T07:25:45;51.00;;;33.10;;
35306;SDS011;21420;52.196;21.416;2024-03-22T07:28:14;49.50;;;32.30;;
35306;SDS011;21420;52.196;21.416;2024-03-22T07:30:42;51.30;;;31.70;;
35306;SDS011;21420;52.196;21.416;2024-03-22T07:33:10;41.70;;;29.50;;
35306;SDS011;21420;52.196;21.416;2024-03-22T07:35:39;44.00;;;29.10;;
35306;SDS011;21420;52.196;21.416;2024-03-22T07:38:06;42.10;;;29.10;;
35306;SDS011;21420;52.196;21.416;2024-03-22T07:40:32;44.10;;;30.40;;
35306;SDS011;21420;52.196;21.416;2024-03-22T07:42:59;53.10;;;32.60;;
35306;SDS011;21420;52.196;21.416;2024-03-22T07:45:25;54.30;;;34.20;;
35306;SDS011;21420;52.196;21.416;2024-03-22T07:47:52;45.40;;;31.80;;
35306;SDS011;21420;52.196;21.416;2024-03-22T07:50:18;47.10;;;31.80;;
35306;SDS011;21420;52.196;21.416;2024-03-22T07:52:45;52.00;;;31.50;;
35306;SDS011;21420;52.196;21.416;2024-03-22T07:55:12;41.90;;;29.50;;
35306;SDS011;21420;52.196;21.416;2024-03-22T07:57:38;45.70;;;28.70;;
35306;SDS011;21420;52.196;21.416;2024-03-22T08:00:05;45.70;;;31.80;;
35306;SDS011;21420;52.196;21.416;2024-03-22T08:02:37;47.80;;;32.20;;
35306;SDS011;21420;52.196;21.416;2024-03-22T08:05:03;48.50;;;32.70;;
35306;SDS011;21420;52.196;21.416;2024-03-22T08:07:31;47.50;;;29.90;;
35306;SDS011;21420;52.196;21.416;2024-03-22T08:09:58;49.20;;;30.70;;
35306;SDS011;21420;52.196;21.416;2024-03-22T08:12:27;45.70;;;29.60;;
35306;SDS011;21420;52.196;21.416;2024-03-22T08:14:54;47.50;;;31.40;;
35306;SDS011;21420;52.196;21.416;2024-03-22T08:17:22;50.70;;;33.20;;
35306;SDS011;21420;52.196;21.416;2024-03-22T08:19:48;53.30;;;33.10;;
35306;SDS011;21420;52.196;21.416;2024-03-22T08:22:15;52.60;;;32.00;;
35306;SDS011;21420;52.196;21.416;2024-03-22T08:24:41;52.50;;;33.10;;
35306;SDS011;21420;52.196;21.416;2024-03-22T08:27:08;46.70;;;30.80;;
35306;SDS011;21420;52.196;21.416;2024-03-22T08:29:35;47.70;;;29.80;;
35306;SDS011;21420;52.196;21.416;2024-03-22T08:32:01;38.80;;;27.10;;
35306;SDS011;21420;52.196;21.416;2024-03-22T08:34:30;39.60;;;27.40;;
35306;SDS011;21420;52.196;21.416;2024-03-22T08:37:00;43.60;;;29.30;;
35306;SDS011;21420;52.196;21.416;2024-03-22T08:39:27;42.80;;;30.20;;
35306;SDS011;21420;52.196;21.416;2024-03-22T08:41:53;40.50;;;28.20;;
35306;SDS011;21420;52.196;21.416;2024-03-22T08:44:21;38.40;;;26.90;;
35306;SDS011;21420;52.196;21.416;2024-03-22T08:46:47;42.00;;;27.80;;
35306;SDS011;21420;52.196;21.416;2024-03-22T08:49:15;37.20;;;26.90;;
35306;SDS011;21420;52.196;21.416;2024-03-22T08:51:42;41.10;;;26.90;;
35306;SDS011;21420;52.196;21.416;2024-03-22T08:54:09;35.30;;;25.90;;
35306;SDS011;21420;52.196;21.416;2024-03-22T08:56:36;37.20;;;25.00;;
35306;SDS011;21420;52.196;21.416;2024-03-22T08:59:03;31.10;;;21.80;;
35306;SDS011;21420;52.196;21.416;2024-03-22T09:01:29;31.20;;;22.80;;
35306;SDS011;21420;52.196;21.416;2024-03-22T09:03:56;30.50;;;21.10;;
35306;SDS011;21420;52.196;21.416;2024-03-22T09:06:22;31.90;;;22.40;;
35306;SDS011;21420;52.196;21.416;2024-03-22T09:08:49;29.80;;;21.60;;
35306;SDS011;21420;52.196;21.416;2024-03-22T09:11:15;29.60;;;21.40;;
35306;SDS011;21420;52.196;21.416;2024-03-22T09:13:42;35.20;;;23.30;;
35306;SDS011;21420;52.196;21.416;2024-03-22T09:16:08;31.40;;;23.20;;
35306;SDS011;21420;52.196;21.416;2024-03-22T09:18:35;32.70;;;23.70;;
35306;SDS011;21420;52.196;21.416;2024-03-22T09:21:02;34.80;;;24.70;;
35306;SDS011;21420;52.196;21.416;2024-03-22T09:23:28;36.50;;;26.00;;
35306;SDS011;21420;52.196;21.416;2024-03-22T09:25:55;36.10;;;25.10;;
35306;SDS011;21420;52.196;21.416;2024-03-22T09:28:21;34.80;;;25.80;;
35306;SDS011;21420;52.196;21.416;2024-03-22T09:30:48;39.50;;;27.20;;
35306;SDS011;21420;52.196;21.416;2024-03-22T09:33:23;37.70;;;28.40;;
35306;SDS011;21420;52.196;21.416;2024-03-22T09:35:49;35.40;;;26.50;;
35306;SDS011;21420;52.196;21.416;2024-03-22T09:38:16;39.60;;;29.00;;
35306;SDS011;21420;52.196;21.416;2024-03-22T09:40:43;41.50;;;29.90;;
35306;SDS011;21420;52.196;21.416;2024-03-22T09:43:10;43.50;;;30.60;;
35306;SDS011;21420;52.196;21.416;2024-03-22T09:45:41;41.80;;;32.00;;
35306;SDS011;21420;52.196;21.416;2024-03-22T09:48:10;46.20;;;33.20;;
35306;SDS011;21420;52.196;21.416;2024-03-22T09:50:37;49.90;;;33.70;;
35306;SDS011;21420;52.196;21.416;2024-03-22T09:53:03;48.90;;;34.10;;
35306;SDS011;21420;52.196;21.416;2024-03-22T09:58:02;44.40;;;32.90;;
35306;SDS011;21420;52.196;21.416;2024-03-22T10:00:29;41.40;;;31.00;;
35306;SDS011;21420;52.196;21.416;2024-03-22T10:02:57;43.00;;;30.80;;
35306;SDS011;21420;52.196;21.416;2024-03-22T10:05:24;41.00;;;31.40;;
35306;SDS011;21420;52.196;21.416;2024-03-22T10:07:51;40.70;;;29.20;;
35306;SDS011;21420;52.196;21.416;2024-03-22T10:10:19;43.50;;;31.00;;
35306;SDS011;21420;52.196;21.416;2024-03-22T10:12:47;41.20;;;30.90;;
35306;SDS011;21420;52.196;21.416;2024-03-22T10:15:14;43.30;;;31.60;;
35306;SDS011;21420;52.196;21.416;2024-03-22T10:17:41;39.80;;;29.80;;
35306;SDS011;21420;52.196;21.416;2024-03-22T10:20:08;38.80;;;30.60;;
35306;SDS011;21420;52.196;21.416;2024-03-22T10:22:43;36.70;;;28.00;;
35306;SDS011;21420;52.196;21.416;2024-03-22T10:25:15;38.20;;;29.10;;
35306;SDS011;21420;52.196;21.416;2024-03-22T10:27:41;39.50;;;29.30;;
35306;SDS011;21420;52.196;21.416;2024-03-22T10:30:08;41.60;;;30.30;;
35306;SDS011;21420;52.196;21.416;2024-03-22T10:32:36;32.00;;;25.40;;
35306;SDS011;21420;52.196;21.416;2024-03-22T10:35:03;34.10;;;25.40;;
35306;SDS011;21420;52.196;21.416;2024-03-22T10:37:33;36.20;;;26.00;;
35306;SDS011;21420;52.196;21.416;2024-03-22T10:40:03;35.60;;;26.60;;
35306;SDS011;21420;52.196;21.416;2024-03-22T10:42:38;37.40;;;30.70;;
35306;SDS011;21420;52.196;21.416;2024-03-22T10:45:06;53.00;;;34.00;;
35306;SDS011;21420;52.196;21.416;2024-03-22T10:47:34;31.50;;;24.20;;
35306;SDS011;21420;52.196;21.416;2024-03-22T10:52:54;26.20;;;21.30;;
35306;SDS011;21420;52.196;21.416;2024-03-22T10:55:25;24.90;;;19.50;;
35306;SDS011;21420;52.196;21.416;2024-03-22T10:58:15;23.80;;;19.20;;
35306;SDS011;21420;52.196;21.416;2024-03-22T11:00:51;23.70;;;18.20;;
35306;SDS011;21420;52.196;21.416;2024-03-22T11:03:21;26.20;;;19.10;;
35306;SDS011;21420;52.196;21.416;2024-03-22T11:05:50;24.10;;;18.40;;
35306;SDS011;21420;52.196;21.416;2024-03-22T11:08:24;25.50;;;19.30;;
35306;SDS011;21420;52.196;21.416;2024-03-22T11:11:08;22.30;;;18.50;;
35306;SDS011;21420;52.196;21.416;2024-03-22T11:13:36;21.60;;;17.30;;
35306;SDS011;21420;52.196;21.416;2024-03-22T11:16:05;21.90;;;17.60;;
35306;SDS011;21420;52.196;21.416;2024-03-22T11:18:33;22.60;;;17.20;;
35306;SDS011;21420;52.196;21.416;2024-03-22T11:21:00;22.90;;;17.20;;
35306;SDS011;21420;52.196;21.416;2024-03-22T11:23:27;23.30;;;17.70;;
35306;SDS011;21420;52.196;21.416;2024-03-22T11:25:53;23.20;;;17.60;;
35306;SDS011;21420;52.196;21.416;2024-03-22T11:28:20;25.00;;;18.90;;
35306;SDS011;21420;52.196;21.416;2024-03-22T11:30:47;25.00;;;19.50;;
35306;SDS011;21420;52.196;21.416;2024-03-22T11:33:14;23.80;;;19.20;;
35306;SDS011;21420;52.196;21.416;2024-03-22T11:35:40;27.50;;;20.40;;
35306;SDS011;21420;52.196;21.416;2024-03-22T11:38:07;23.20;;;18.30;;
35306;SDS011;21420;52.196;21.416;2024-03-22T11:40:34;23.40;;;18.70;;
35306;SDS011;21420;52.196;21.416;2024-03-22T11:43:01;24.40;;;18.60;;
35306;SDS011;21420;52.196;21.416;2024-03-22T11:45:28;22.60;;;18.30;;
35306;SDS011;21420;52.196;21.416;2024-03-22T11:48:01;24.10;;;19.40;;
35306;SDS011;21420;52.196;21.416;2024-03-22T11:50:29;23.10;;;18.30;;
35306;SDS011;21420;52.196;21.416;2024-03-22T11:52:55;25.30;;;18.90;;
35306;SDS011;21420;52.196;21.416;2024-03-22T11:55:22;21.50;;;17.70;;
35306;SDS011;21420;52.196;21.416;2024-03-22T11:57:53;19.30;;;16.80;;
35306;SDS011;21420;52.196;21.416;2024-03-22T12:00:23;30.40;;;21.00;;
35306;SDS011;21420;52.196;21.416;2024-03-22T12:03:11;22.20;;;18.50;;
35306;SDS011;21420;52.196;21.416;2024-03-22T12:05:38;25.30;;;18.90;;
35306;SDS011;21420;52.196;21.416;2024-03-22T12:08:06;22.20;;;18.40;;
35306;SDS011;21420;52.196;21.416;2024-03-22T12:10:33;29.60;;;22.20;;
35306;SDS011;21420;52.196;21.416;2024-03-22T12:13:00;27.70;;;22.00;;
35306;SDS011;21420;52.196;21.416;2024-03-22T12:15:27;25.10;;;21.10;;
35306;SDS011;21420;52.196;21.416;2024-03-22T12:17:53;24.10;;;19.40;;
35306;SDS011;21420;52.196;21.416;2024-03-22T12:20:20;22.90;;;19.30;;
35306;SDS011;21420;52.196;21.416;2024-03-22T12:22:48;26.10;;;21.40;;
35306;SDS011;21420;52.196;21.416;2024-03-22T12:25:14;27.00;;;21.10;;
35306;SDS011;21420;52.196;21.416;2024-03-22T12:27:41;25.20;;;21.00;;
35306;SDS011;21420;52.196;21.416;2024-03-22T12:30:08;26.00;;;21.40;;
35306;SDS011;21420;52.196;21.416;2024-03-22T12:32:35;26.70;;;21.70;;
35306;SDS011;21420;52.196;21.416;2024-03-22T12:35:02;29.70;;;20.80;;
35306;SDS011;21420;52.196;21.416;2024-03-22T12:37:28;26.20;;;21.10;;
35306;SDS011;21420;52.196;21.416;2024-03-22T12:39:55;25.70;;;20.90;;
35306;SDS011;21420;52.196;21.416;2024-03-22T12:42:22;25.90;;;21.20;;
35306;SDS011;21420;52.196;21.416;2024-03-22T12:44:48;25.00;;;21.10;;
35306;SDS011;21420;52.196;21.416;2024-03-22T12:47:15;24.70;;;20.70;;
35306;SDS011;21420;52.196;21.416;2024-03-22T12:49:41;22.70;;;20.00;;
35306;SDS011;21420;52.196;21.416;2024-03-22T12:52:08;22.80;;;20.10;;
35306;SDS011;21420;52.196;21.416;2024-03-22T12:54:35;23.30;;;18.80;;
35306;SDS011;21420;52.196;21.416;2024-03-22T12:57:01;22.70;;;19.00;;
35306;SDS011;21420;52.196;21.416;2024-03-22T12:59:28;25.20;;;19.70;;
35306;SDS011;21420;52.196;21.416;2024-03-22T13:01:55;22.70;;;18.20;;
35306;SDS011;21420;52.196;21.416;2024-03-22T13:04:21;22.50;;;18.40;;
35306;SDS011;21420;52.196;21.416;2024-03-22T13:06:49;23.00;;;18.10;;
35306;SDS011;21420;52.196;21.416;2024-03-22T13:09:16;23.50;;;18.00;;
35306;SDS011;21420;52.196;21.416;2024-03-22T13:11:46;22.30;;;19.10;;
35306;SDS011;21420;52.196;21.416;2024-03-22T13:14:14;23.40;;;18.00;;
35306;SDS011;21420;52.196;21.416;2024-03-22T13:16:41;24.40;;;18.80;;
35306;SDS011;21420;52.196;21.416;2024-03-22T13:19:07;22.30;;;17.80;;
35306;SDS011;21420;52.196;21.416;2024-03-22T13:21:38;21.80;;;17.60;;
35306;SDS011;21420;52.196;21.416;2024-03-22T13:24:05;20.70;;;17.30;;
35306;SDS011;21420;52.196;21.416;2024-03-22T13:26:32;25.90;;;19.30;;
35306;SDS011;21420;52.196;21.416;2024-03-22T13:28:58;20.20;;;17.10;;
35306;SDS011;21420;52.196;21.416;2024-03-22T13:31:25;22.60;;;15.90;;
35306;SDS011;21420;52.196;21.416;2024-03-22T13:33:58;19.50;;;17.10;;
35306;SDS011;21420;52.196;21.416;2024-03-22T13:36:25;23.80;;;16.90;;
35306;SDS011;21420;52.196;21.416;2024-03-22T13:38:51;22.50;;;18.30;;
35306;SDS011;21420;52.196;21.416;2024-03-22T13:41:18;22.80;;;17.10;;
35306;SDS011;21420;52.196;21.416;2024-03-22T13:43:45;22.10;;;17.20;;
35306;SDS011;21420;52.196;21.416;2024-03-22T13:46:11;20.30;;;16.10;;
35306;SDS011;21420;52.196;21.416;2024-03-22T13:48:41;18.40;;;15.30;;
35306;SDS011;21420;52.196;21.416;2024-03-22T13:51:07;22.20;;;16.90;;
35306;SDS011;21420;52.196;21.416;2024-03-22T13:53:34;17.30;;;14.90;;
35306;SDS011;21420;52.196;21.416;2024-03-22T13:56:01;40.40;;;30.20;;
35306;SDS011;21420;52.196;21.416;2024-03-22T13:58:27;18.80;;;15.80;;
35306;SDS011;21420;52.196;21.416;2024-03-22T14:00:54;20.30;;;15.80;;
35306;SDS011;21420;52.196;21.416;2024-03-22T14:03:20;20.10;;;15.40;;
35306;SDS011;21420;52.196;21.416;2024-03-22T14:05:47;18.20;;;15.70;;
35306;SDS011;21420;52.196;21.416;2024-03-22T14:08:14;16.40;;;14.10;;
35306;SDS011;21420;52.196;21.416;2024-03-22T14:10:40;19.20;;;14.90;;
35306;SDS011;21420;52.196;21.416;2024-03-22T14:13:07;19.40;;;16.00;;
35306;SDS011;21420;52.196;21.416;2024-03-22T14:15:34;21.00;;;15.10;;
35306;SDS011;21420;52.196;21.416;2024-03-22T14:18:05;35.90;;;23.70;;